YSBG weather

Strathbogie Airport
Victoria, Australia

Public forecast

Using degrees Celsius for public forecast. Weather courtesy of forecast.io.

Closest aviation weather report (METAR) to Strathbogie Airport

Closest report is Wangaratta Airport, 38.0 nm (70.4 km) NE. Retrieved 2020/01/28 09:00 UTC (33 minutes ago):

YWGT 280900Z AUTO 22013KT 9999 // NCD 29/M02 Q1012

Closest aviation forecast (TAF) to Strathbogie Airport

Closest forecast is Wangaratta Airport, 38.0 nm (70.4 km) NE. Retrieved 2020/01/28 08:03 UTC (1 hour ago):

TAF YWGT 280631Z 2808/2820 26012KT CAVOK BECMG 2808/2810 21005KT CAVOK